高雄終端管制區 - 高雄雷達席

SPECI RCKH 130740Z 30010KT 270V330 5000 TSRA FEW008CB SCT010 BKN018 BKN040 30/25 Q1010 TEMPO 1500 +TSRA RMK TS NE-E MOV SW A2984=

站台狀態:Online
最後更新:2020-08-13 15:30:01